sensor_id;sensor_type;location;lat;lon;timestamp;temperature;humidity
59923;DHT22;45778;51.142;3.732;2022-12-29T00:02:15;11.30;99.90
59923;DHT22;45778;51.142;3.732;2022-12-29T00:04:41;11.40;99.90
59923;DHT22;45778;51.142;3.732;2022-12-29T00:07:07;11.50;99.90
59923;DHT22;45778;51.142;3.732;2022-12-29T00:09:33;11.50;99.90
59923;DHT22;45778;51.142;3.732;2022-12-29T00:12:00;11.50;99.90
59923;DHT22;45778;51.142;3.732;2022-12-29T00:14:26;11.60;99.90
59923;DHT22;45778;51.142;3.732;2022-12-29T00:17:11;11.60;99.90
59923;DHT22;45778;51.142;3.732;2022-12-29T00:19:37;11.60;99.90
59923;DHT22;45778;51.142;3.732;2022-12-29T00:22:21;11.60;99.90
59923;DHT22;45778;51.142;3.732;2022-12-29T00:25:07;11.60;99.90
59923;DHT22;45778;51.142;3.732;2022-12-29T00:27:52;11.60;99.90
59923;DHT22;45778;51.142;3.732;2022-12-29T00:30:36;11.70;99.90
59923;DHT22;45778;51.142;3.732;2022-12-29T00:33:22;11.80;99.90
59923;DHT22;45778;51.142;3.732;2022-12-29T00:38:38;11.90;99.90
59923;DHT22;45778;51.142;3.732;2022-12-29T00:41:23;12.00;99.90
59923;DHT22;45778;51.142;3.732;2022-12-29T00:44:09;12.00;99.90
59923;DHT22;45778;51.142;3.732;2022-12-29T00:46:40;12.10;99.90
59923;DHT22;45778;51.142;3.732;2022-12-29T00:49:08;12.00;99.90
59923;DHT22;45778;51.142;3.732;2022-12-29T00:51:53;11.90;99.90
59923;DHT22;45778;51.142;3.732;2022-12-29T00:54:19;11.90;99.90
59923;DHT22;45778;51.142;3.732;2022-12-29T00:56:49;11.80;99.90
59923;DHT22;45778;51.142;3.732;2022-12-29T00:59:15;11.90;99.90
59923;DHT22;45778;51.142;3.732;2022-12-29T01:01:41;12.00;99.90
59923;DHT22;45778;51.142;3.732;2022-12-29T01:04:08;12.10;99.90
59923;DHT22;45778;51.142;3.732;2022-12-29T01:06:35;12.00;99.90
59923;DHT22;45778;51.142;3.732;2022-12-29T01:09:02;12.00;99.90
59923;DHT22;45778;51.142;3.732;2022-12-29T01:11:46;12.10;99.90
59923;DHT22;45778;51.142;3.732;2022-12-29T01:14:12;12.10;99.90
59923;DHT22;45778;51.142;3.732;2022-12-29T01:16:38;12.10;99.90
59923;DHT22;45778;51.142;3.732;2022-12-29T01:19:03;12.10;99.90
59923;DHT22;45778;51.142;3.732;2022-12-29T01:21:30;12.00;99.90
59923;DHT22;45778;51.142;3.732;2022-12-29T01:23:55;12.00;99.90
59923;DHT22;45778;51.142;3.732;2022-12-29T01:26:21;12.00;99.90
59923;DHT22;45778;51.142;3.732;2022-12-29T01:28:47;12.00;99.90
59923;DHT22;45778;51.142;3.732;2022-12-29T01:31:14;12.00;99.90
59923;DHT22;45778;51.142;3.732;2022-12-29T01:33:41;12.00;99.90
59923;DHT22;45778;51.142;3.732;2022-12-29T01:36:10;12.00;99.90
59923;DHT22;45778;51.142;3.732;2022-12-29T01:38:37;11.90;99.90
59923;DHT22;45778;51.142;3.732;2022-12-29T01:41:03;11.90;99.90
59923;DHT22;45778;51.142;3.732;2022-12-29T01:43:47;11.90;99.90
59923;DHT22;45778;51.142;3.732;2022-12-29T01:49:12;12.00;99.90
59923;DHT22;45778;51.142;3.732;2022-12-29T01:51:44;11.90;99.90
59923;DHT22;45778;51.142;3.732;2022-12-29T01:54:20;12.00;99.90
59923;DHT22;45778;51.142;3.732;2022-12-29T01:56:48;12.00;99.90
59923;DHT22;45778;51.142;3.732;2022-12-29T01:59:19;12.00;99.90
59923;DHT22;45778;51.142;3.732;2022-12-29T02:01:46;11.90;99.90
59923;DHT22;45778;51.142;3.732;2022-12-29T02:04:13;11.90;99.90
59923;DHT22;45778;51.142;3.732;2022-12-29T02:06:52;11.90;99.90
59923;DHT22;45778;51.142;3.732;2022-12-29T02:09:19;11.90;99.90
59923;DHT22;45778;51.142;3.732;2022-12-29T02:11:45;11.90;99.90
59923;DHT22;45778;51.142;3.732;2022-12-29T02:14:13;11.90;99.90
59923;DHT22;45778;51.142;3.732;2022-12-29T02:22:29;11.80;99.90
59923;DHT22;45778;51.142;3.732;2022-12-29T02:36:01;11.60;99.90
59923;DHT22;45778;51.142;3.732;2022-12-29T02:39:06;11.60;99.90
59923;DHT22;45778;51.142;3.732;2022-12-29T02:45:04;11.40;99.90
59923;DHT22;45778;51.142;3.732;2022-12-29T02:47:39;11.40;99.90
59923;DHT22;45778;51.142;3.732;2022-12-29T02:50:08;11.30;99.90
59923;DHT22;45778;51.142;3.732;2022-12-29T02:52:42;11.30;99.90
59923;DHT22;45778;51.142;3.732;2022-12-29T02:55:11;11.10;99.90
59923;DHT22;45778;51.142;3.732;2022-12-29T02:57:37;10.80;99.90
59923;DHT22;45778;51.142;3.732;2022-12-29T03:00:12;10.60;99.90
59923;DHT22;45778;51.142;3.732;2022-12-29T03:05:56;10.30;99.90
59923;DHT22;45778;51.142;3.732;2022-12-29T03:08:42;10.30;99.90
59923;DHT22;45778;51.142;3.732;2022-12-29T03:11:12;10.10;99.90
59923;DHT22;45778;51.142;3.732;2022-12-29T03:14:05;10.00;99.90
59923;DHT22;45778;51.142;3.732;2022-12-29T03:17:08;10.00;99.90
59923;DHT22;45778;51.142;3.732;2022-12-29T03:19:41;9.90;99.90
59923;DHT22;45778;51.142;3.732;2022-12-29T03:22:15;9.90;99.90
59923;DHT22;45778;51.142;3.732;2022-12-29T03:25:10;9.80;99.90
59923;DHT22;45778;51.142;3.732;2022-12-29T03:27:44;9.80;99.90
59923;DHT22;45778;51.142;3.732;2022-12-29T03:30:11;9.90;99.90
59923;DHT22;45778;51.142;3.732;2022-12-29T03:32:55;10.00;99.90
59923;DHT22;45778;51.142;3.732;2022-12-29T03:35:25;10.10;99.90
59923;DHT22;45778;51.142;3.732;2022-12-29T03:38:10;10.20;99.90
59923;DHT22;45778;51.142;3.732;2022-12-29T03:40:39;10.20;99.90
59923;DHT22;45778;51.142;3.732;2022-12-29T03:43:06;10.30;99.90
59923;DHT22;45778;51.142;3.732;2022-12-29T03:45:32;10.40;99.90
59923;DHT22;45778;51.142;3.732;2022-12-29T03:47:58;10.50;99.90
59923;DHT22;45778;51.142;3.732;2022-12-29T03:50:24;10.50;99.90
59923;DHT22;45778;51.142;3.732;2022-12-29T03:52:50;10.50;99.90
59923;DHT22;45778;51.142;3.732;2022-12-29T03:55:15;10.50;99.90
59923;DHT22;45778;51.142;3.732;2022-12-29T03:57:41;10.40;99.90
59923;DHT22;45778;51.142;3.732;2022-12-29T04:00:07;10.40;99.90
59923;DHT22;45778;51.142;3.732;2022-12-29T04:02:33;10.40;99.90
59923;DHT22;45778;51.142;3.732;2022-12-29T04:04:59;10.50;99.90
59923;DHT22;45778;51.142;3.732;2022-12-29T04:07:25;10.50;99.90
59923;DHT22;45778;51.142;3.732;2022-12-29T04:09:50;10.50;99.90
59923;DHT22;45778;51.142;3.732;2022-12-29T04:12:16;10.50;99.90
59923;DHT22;45778;51.142;3.732;2022-12-29T04:14:42;10.60;99.90
59923;DHT22;45778;51.142;3.732;2022-12-29T04:17:07;10.50;99.90
59923;DHT22;45778;51.142;3.732;2022-12-29T04:19:33;10.60;99.90
59923;DHT22;45778;51.142;3.732;2022-12-29T04:21:59;10.50;99.90
59923;DHT22;45778;51.142;3.732;2022-12-29T04:24:24;10.50;99.90
59923;DHT22;45778;51.142;3.732;2022-12-29T04:26:50;10.50;99.90
59923;DHT22;45778;51.142;3.732;2022-12-29T04:29:16;10.50;99.90
59923;DHT22;45778;51.142;3.732;2022-12-29T04:31:41;10.40;99.90
59923;DHT22;45778;51.142;3.732;2022-12-29T04:34:07;10.40;99.90
59923;DHT22;45778;51.142;3.732;2022-12-29T04:36:33;10.40;99.90
59923;DHT22;45778;51.142;3.732;2022-12-29T04:38:59;10.40;99.90
59923;DHT22;45778;51.142;3.732;2022-12-29T04:41:25;10.40;99.90
59923;DHT22;45778;51.142;3.732;2022-12-29T04:43:50;10.40;99.90
59923;DHT22;45778;51.142;3.732;2022-12-29T04:46:16;10.50;99.90
59923;DHT22;45778;51.142;3.732;2022-12-29T04:48:42;10.50;99.90
59923;DHT22;45778;51.142;3.732;2022-12-29T04:51:08;10.50;99.90
59923;DHT22;45778;51.142;3.732;2022-12-29T04:53:34;10.60;99.90
59923;DHT22;45778;51.142;3.732;2022-12-29T04:55:59;10.60;99.90
59923;DHT22;45778;51.142;3.732;2022-12-29T04:58:25;10.60;99.90
59923;DHT22;45778;51.142;3.732;2022-12-29T05:00:51;10.60;99.90
59923;DHT22;45778;51.142;3.732;2022-12-29T05:03:17;10.60;99.90
59923;DHT22;45778;51.142;3.732;2022-12-29T05:05:43;10.60;99.90
59923;DHT22;45778;51.142;3.732;2022-12-29T05:08:09;10.60;99.90
59923;DHT22;45778;51.142;3.732;2022-12-29T05:10:35;10.60;99.90
59923;DHT22;45778;51.142;3.732;2022-12-29T05:13:00;10.60;99.90
59923;DHT22;45778;51.142;3.732;2022-12-29T05:15:26;10.60;99.90
59923;DHT22;45778;51.142;3.732;2022-12-29T05:17:52;10.70;99.90
59923;DHT22;45778;51.142;3.732;2022-12-29T05:20:18;10.70;99.90
59923;DHT22;45778;51.142;3.732;2022-12-29T05:22:43;10.70;99.90
59923;DHT22;45778;51.142;3.732;2022-12-29T05:25:09;10.60;99.90
59923;DHT22;45778;51.142;3.732;2022-12-29T05:27:35;10.60;99.90
59923;DHT22;45778;51.142;3.732;2022-12-29T05:30:01;10.60;99.90
59923;DHT22;45778;51.142;3.732;2022-12-29T05:32:26;10.50;99.90
59923;DHT22;45778;51.142;3.732;2022-12-29T05:34:52;10.50;99.90
59923;DHT22;45778;51.142;3.732;2022-12-29T05:37:18;10.60;99.90
59923;DHT22;45778;51.142;3.732;2022-12-29T05:39:44;10.60;99.90
59923;DHT22;45778;51.142;3.732;2022-12-29T05:42:09;10.70;99.90
59923;DHT22;45778;51.142;3.732;2022-12-29T05:44:35;10.70;99.90
59923;DHT22;45778;51.142;3.732;2022-12-29T05:47:01;10.70;99.90
59923;DHT22;45778;51.142;3.732;2022-12-29T05:49:26;10.60;99.90
59923;DHT22;45778;51.142;3.732;2022-12-29T05:51:52;10.70;99.90
59923;DHT22;45778;51.142;3.732;2022-12-29T05:54:18;10.60;99.90
59923;DHT22;45778;51.142;3.732;2022-12-29T05:56:43;10.60;99.90
59923;DHT22;45778;51.142;3.732;2022-12-29T05:59:09;10.60;99.90
59923;DHT22;45778;51.142;3.732;2022-12-29T06:01:35;10.70;99.90
59923;DHT22;45778;51.142;3.732;2022-12-29T06:04:00;10.70;99.90
59923;DHT22;45778;51.142;3.732;2022-12-29T06:06:26;10.60;99.90
59923;DHT22;45778;51.142;3.732;2022-12-29T06:08:52;10.50;99.90
59923;DHT22;45778;51.142;3.732;2022-12-29T06:11:17;10.70;99.90
59923;DHT22;45778;51.142;3.732;2022-12-29T06:13:43;10.80;99.90
59923;DHT22;45778;51.142;3.732;2022-12-29T06:16:09;10.80;99.90
59923;DHT22;45778;51.142;3.732;2022-12-29T06:18:34;10.90;99.90
59923;DHT22;45778;51.142;3.732;2022-12-29T06:21:01;10.80;99.90
59923;DHT22;45778;51.142;3.732;2022-12-29T06:23:28;10.80;99.90
59923;DHT22;45778;51.142;3.732;2022-12-29T06:25:53;10.80;99.90
59923;DHT22;45778;51.142;3.732;2022-12-29T06:28:19;10.80;99.90
59923;DHT22;45778;51.142;3.732;2022-12-29T06:30:46;10.90;99.90
59923;DHT22;45778;51.142;3.732;2022-12-29T06:33:12;10.80;99.90
59923;DHT22;45778;51.142;3.732;2022-12-29T06:35:38;10.90;99.90
59923;DHT22;45778;51.142;3.732;2022-12-29T06:38:04;10.80;99.90
59923;DHT22;45778;51.142;3.732;2022-12-29T06:40:30;10.80;99.90
59923;DHT22;45778;51.142;3.732;2022-12-29T06:42:55;10.50;99.90
59923;DHT22;45778;51.142;3.732;2022-12-29T06:45:21;10.30;99.90
59923;DHT22;45778;51.142;3.732;2022-12-29T06:47:47;10.10;99.90
59923;DHT22;45778;51.142;3.732;2022-12-29T06:50:12;9.90;99.90
59923;DHT22;45778;51.142;3.732;2022-12-29T06:52:38;9.60;99.90
59923;DHT22;45778;51.142;3.732;2022-12-29T06:55:04;9.40;99.90
59923;DHT22;45778;51.142;3.732;2022-12-29T06:57:30;9.30;99.90
59923;DHT22;45778;51.142;3.732;2022-12-29T06:59:55;9.20;99.90
59923;DHT22;45778;51.142;3.732;2022-12-29T07:02:22;9.20;99.90
59923;DHT22;45778;51.142;3.732;2022-12-29T07:04:47;9.30;99.90
59923;DHT22;45778;51.142;3.732;2022-12-29T07:07:13;9.40;99.90
59923;DHT22;45778;51.142;3.732;2022-12-29T07:09:39;9.60;99.90
59923;DHT22;45778;51.142;3.732;2022-12-29T07:12:05;9.80;99.90
59923;DHT22;45778;51.142;3.732;2022-12-29T07:14:31;9.90;99.90
59923;DHT22;45778;51.142;3.732;2022-12-29T07:16:57;9.90;99.90
59923;DHT22;45778;51.142;3.732;2022-12-29T07:19:23;10.00;99.90
59923;DHT22;45778;51.142;3.732;2022-12-29T07:21:48;10.10;99.90
59923;DHT22;45778;51.142;3.732;2022-12-29T07:24:14;10.20;99.90
59923;DHT22;45778;51.142;3.732;2022-12-29T07:26:40;10.30;99.90
59923;DHT22;45778;51.142;3.732;2022-12-29T07:29:06;10.40;99.90
59923;DHT22;45778;51.142;3.732;2022-12-29T07:31:32;10.40;99.90
59923;DHT22;45778;51.142;3.732;2022-12-29T07:33:58;10.40;99.90
59923;DHT22;45778;51.142;3.732;2022-12-29T07:36:24;10.40;99.90
59923;DHT22;45778;51.142;3.732;2022-12-29T07:38:49;10.40;99.90
59923;DHT22;45778;51.142;3.732;2022-12-29T07:41:15;10.50;99.90
59923;DHT22;45778;51.142;3.732;2022-12-29T07:43:41;10.50;99.90
59923;DHT22;45778;51.142;3.732;2022-12-29T07:46:06;10.60;99.90
59923;DHT22;45778;51.142;3.732;2022-12-29T07:48:34;10.60;99.90
59923;DHT22;45778;51.142;3.732;2022-12-29T07:51:01;10.60;99.90
59923;DHT22;45778;51.142;3.732;2022-12-29T07:53:27;10.60;99.90
59923;DHT22;45778;51.142;3.732;2022-12-29T07:55:53;10.50;99.90
59923;DHT22;45778;51.142;3.732;2022-12-29T07:58:18;10.50;99.90
59923;DHT22;45778;51.142;3.732;2022-12-29T08:00:44;10.50;99.90
59923;DHT22;45778;51.142;3.732;2022-12-29T08:03:10;10.60;99.90
59923;DHT22;45778;51.142;3.732;2022-12-29T08:05:36;10.50;99.90
59923;DHT22;45778;51.142;3.732;2022-12-29T08:08:01;10.40;99.90
59923;DHT22;45778;51.142;3.732;2022-12-29T08:10:27;10.30;99.90
59923;DHT22;45778;51.142;3.732;2022-12-29T08:12:53;10.30;99.90
59923;DHT22;45778;51.142;3.732;2022-12-29T08:15:18;10.10;99.90
59923;DHT22;45778;51.142;3.732;2022-12-29T08:17:44;9.80;99.90
59923;DHT22;45778;51.142;3.732;2022-12-29T08:20:10;9.70;99.90
59923;DHT22;45778;51.142;3.732;2022-12-29T08:22:36;9.50;99.90
59923;DHT22;45778;51.142;3.732;2022-12-29T08:25:02;9.30;99.90
59923;DHT22;45778;51.142;3.732;2022-12-29T08:27:28;9.20;99.90
59923;DHT22;45778;51.142;3.732;2022-12-29T08:29:54;9.20;99.90
59923;DHT22;45778;51.142;3.732;2022-12-29T08:32:20;9.20;99.90
59923;DHT22;45778;51.142;3.732;2022-12-29T08:34:45;9.30;99.90
59923;DHT22;45778;51.142;3.732;2022-12-29T08:37:11;9.20;99.90
59923;DHT22;45778;51.142;3.732;2022-12-29T08:39:37;9.20;99.90
59923;DHT22;45778;51.142;3.732;2022-12-29T08:42:03;9.00;99.90
59923;DHT22;45778;51.142;3.732;2022-12-29T08:44:28;9.00;99.90
59923;DHT22;45778;51.142;3.732;2022-12-29T08:46:54;9.10;99.90
59923;DHT22;45778;51.142;3.732;2022-12-29T08:49:20;9.10;99.90
59923;DHT22;45778;51.142;3.732;2022-12-29T08:51:45;9.10;99.90
59923;DHT22;45778;51.142;3.732;2022-12-29T08:54:11;9.00;99.90
59923;DHT22;45778;51.142;3.732;2022-12-29T08:56:37;9.00;99.90
59923;DHT22;45778;51.142;3.732;2022-12-29T08:59:03;9.00;99.90
59923;DHT22;45778;51.142;3.732;2022-12-29T09:01:29;8.90;99.90
59923;DHT22;45778;51.142;3.732;2022-12-29T09:03:55;8.90;99.90
59923;DHT22;45778;51.142;3.732;2022-12-29T09:06:21;8.90;99.90
59923;DHT22;45778;51.142;3.732;2022-12-29T09:08:47;8.90;99.90
59923;DHT22;45778;51.142;3.732;2022-12-29T09:11:19;8.90;99.90
59923;DHT22;45778;51.142;3.732;2022-12-29T09:13:45;9.00;99.90
59923;DHT22;45778;51.142;3.732;2022-12-29T09:16:11;9.10;99.90
59923;DHT22;45778;51.142;3.732;2022-12-29T09:18:37;9.20;99.90
59923;DHT22;45778;51.142;3.732;2022-12-29T09:21:05;9.30;99.90
59923;DHT22;45778;51.142;3.732;2022-12-29T09:23:31;9.30;99.90
59923;DHT22;45778;51.142;3.732;2022-12-29T09:25:57;9.30;99.90
59923;DHT22;45778;51.142;3.732;2022-12-29T09:28:23;9.30;99.90
59923;DHT22;45778;51.142;3.732;2022-12-29T09:30:49;9.30;99.90
59923;DHT22;45778;51.142;3.732;2022-12-29T09:33:16;9.30;99.90
59923;DHT22;45778;51.142;3.732;2022-12-29T09:35:43;9.30;99.90
59923;DHT22;45778;51.142;3.732;2022-12-29T09:38:09;9.30;99.90
59923;DHT22;45778;51.142;3.732;2022-12-29T09:40:35;9.40;99.90
59923;DHT22;45778;51.142;3.732;2022-12-29T09:46:26;9.50;99.90
59923;DHT22;45778;51.142;3.732;2022-12-29T09:49:17;9.70;99.90
59923;DHT22;45778;51.142;3.732;2022-12-29T09:51:48;9.70;99.90
59923;DHT22;45778;51.142;3.732;2022-12-29T09:54:53;9.70;99.90
59923;DHT22;45778;51.142;3.732;2022-12-29T09:57:57;9.70;99.90
59923;DHT22;45778;51.142;3.732;2022-12-29T10:00:36;9.60;99.90
59923;DHT22;45778;51.142;3.732;2022-12-29T10:03:09;9.60;99.90
59923;DHT22;45778;51.142;3.732;2022-12-29T10:08:37;9.50;99.90
59923;DHT22;45778;51.142;3.732;2022-12-29T10:16:41;9.70;99.90
59923;DHT22;45778;51.142;3.732;2022-12-29T10:19:39;9.70;99.90
59923;DHT22;45778;51.142;3.732;2022-12-29T10:24:58;9.80;99.90
59923;DHT22;45778;51.142;3.732;2022-12-29T10:27:30;9.90;99.90
59923;DHT22;45778;51.142;3.732;2022-12-29T10:29:58;9.90;99.90
59923;DHT22;45778;51.142;3.732;2022-12-29T10:32:36;9.90;99.90
59923;DHT22;45778;51.142;3.732;2022-12-29T10:35:31;10.00;99.90
59923;DHT22;45778;51.142;3.732;2022-12-29T10:41:57;10.20;99.90
59923;DHT22;45778;51.142;3.732;2022-12-29T10:43:54;10.30;99.90
59923;DHT22;45778;51.142;3.732;2022-12-29T10:46:32;10.30;99.90
59923;DHT22;45778;51.142;3.732;2022-12-29T10:48:59;10.30;99.90
59923;DHT22;45778;51.142;3.732;2022-12-29T10:51:30;10.30;99.90
59923;DHT22;45778;51.142;3.732;2022-12-29T10:54:21;10.30;99.90
59923;DHT22;45778;51.142;3.732;2022-12-29T10:56:54;10.20;99.90
59923;DHT22;45778;51.142;3.732;2022-12-29T10:59:24;10.30;99.90
59923;DHT22;45778;51.142;3.732;2022-12-29T11:07:08;10.20;99.90
59923;DHT22;45778;51.142;3.732;2022-12-29T11:09:36;10.20;99.90
59923;DHT22;45778;51.142;3.732;2022-12-29T11:14:46;10.10;99.90
59923;DHT22;45778;51.142;3.732;2022-12-29T11:17:16;10.10;99.90
59923;DHT22;45778;51.142;3.732;2022-12-29T11:19:42;10.10;99.90
59923;DHT22;45778;51.142;3.732;2022-12-29T11:22:28;10.20;99.90
59923;DHT22;45778;51.142;3.732;2022-12-29T11:24:55;10.20;99.90
59923;DHT22;45778;51.142;3.732;2022-12-29T11:27:30;10.20;99.90
59923;DHT22;45778;51.142;3.732;2022-12-29T11:29:56;10.20;99.90
59923;DHT22;45778;51.142;3.732;2022-12-29T11:32:27;10.20;99.90
59923;DHT22;45778;51.142;3.732;2022-12-29T11:34:56;10.20;99.90
59923;DHT22;45778;51.142;3.732;2022-12-29T11:37:31;10.30;99.90
59923;DHT22;45778;51.142;3.732;2022-12-29T11:40:03;10.30;99.90
59923;DHT22;45778;51.142;3.732;2022-12-29T11:42:40;10.20;99.90
59923;DHT22;45778;51.142;3.732;2022-12-29T11:45:27;10.10;99.90
59923;DHT22;45778;51.142;3.732;2022-12-29T11:50:29;9.80;99.90
59923;DHT22;45778;51.142;3.732;2022-12-29T11:53:17;9.70;99.90
59923;DHT22;45778;51.142;3.732;2022-12-29T11:55:57;9.50;99.90
59923;DHT22;45778;51.142;3.732;2022-12-29T11:58:32;9.40;99.90
59923;DHT22;45778;51.142;3.732;2022-12-29T12:03:35;9.50;99.90
59923;DHT22;45778;51.142;3.732;2022-12-29T12:06:03;9.50;99.90
59923;DHT22;45778;51.142;3.732;2022-12-29T12:08:46;9.60;99.90
59923;DHT22;45778;51.142;3.732;2022-12-29T12:11:21;9.60;99.90
59923;DHT22;45778;51.142;3.732;2022-12-29T12:17:06;9.60;99.90
59923;DHT22;45778;51.142;3.732;2022-12-29T12:19:46;9.60;99.90
59923;DHT22;45778;51.142;3.732;2022-12-29T12:22:35;9.60;99.90
59923;DHT22;45778;51.142;3.732;2022-12-29T12:27:46;9.70;99.90
59923;DHT22;45778;51.142;3.732;2022-12-29T12:30:18;9.70;99.90
59923;DHT22;45778;51.142;3.732;2022-12-29T12:35:38;9.90;99.90
59923;DHT22;45778;51.142;3.732;2022-12-29T12:41:08;10.10;99.90
59923;DHT22;45778;51.142;3.732;2022-12-29T12:43:37;10.10;99.90
59923;DHT22;45778;51.142;3.732;2022-12-29T12:54:34;10.00;99.90
59923;DHT22;45778;51.142;3.732;2022-12-29T13:02:20;9.90;99.90
59923;DHT22;45778;51.142;3.732;2022-12-29T13:10:56;10.00;99.90
59923;DHT22;45778;51.142;3.732;2022-12-29T13:16:37;9.90;99.90
59923;DHT22;45778;51.142;3.732;2022-12-29T13:19:32;9.70;99.90
59923;DHT22;45778;51.142;3.732;2022-12-29T13:30:17;9.50;99.90
59923;DHT22;45778;51.142;3.732;2022-12-29T13:32:53;9.50;99.90
59923;DHT22;45778;51.142;3.732;2022-12-29T13:40:40;9.20;99.90
59923;DHT22;45778;51.142;3.732;2022-12-29T13:43:07;9.20;99.90
59923;DHT22;45778;51.142;3.732;2022-12-29T13:45:34;9.00;99.90
59923;DHT22;45778;51.142;3.732;2022-12-29T13:50:38;8.90;99.90
59923;DHT22;45778;51.142;3.732;2022-12-29T13:58:38;8.90;99.90
59923;DHT22;45778;51.142;3.732;2022-12-29T14:03:59;9.00;99.90
59923;DHT22;45778;51.142;3.732;2022-12-29T14:06:30;9.00;99.90
59923;DHT22;45778;51.142;3.732;2022-12-29T14:09:00;9.00;99.90
59923;DHT22;45778;51.142;3.732;2022-12-29T14:11:38;9.00;99.90
59923;DHT22;45778;51.142;3.732;2022-12-29T14:14:23;9.00;99.90
59923;DHT22;45778;51.142;3.732;2022-12-29T14:16:50;8.90;99.90
59923;DHT22;45778;51.142;3.732;2022-12-29T14:19:22;8.90;99.90
59923;DHT22;45778;51.142;3.732;2022-12-29T14:22:02;8.90;99.90
59923;DHT22;45778;51.142;3.732;2022-12-29T14:27:01;8.80;99.90
59923;DHT22;45778;51.142;3.732;2022-12-29T14:29:51;8.90;99.90
59923;DHT22;45778;51.142;3.732;2022-12-29T14:34:52;9.40;99.90
59923;DHT22;45778;51.142;3.732;2022-12-29T14:37:26;9.60;99.90
59923;DHT22;45778;51.142;3.732;2022-12-29T14:40:24;9.50;99.90
59923;DHT22;45778;51.142;3.732;2022-12-29T14:42:54;9.30;99.90
59923;DHT22;45778;51.142;3.732;2022-12-29T14:47:50;9.00;99.90
59923;DHT22;45778;51.142;3.732;2022-12-29T14:50:40;9.00;99.90
59923;DHT22;45778;51.142;3.732;2022-12-29T14:53:49;8.90;99.90
59923;DHT22;45778;51.142;3.732;2022-12-29T14:56:15;8.80;99.90
59923;DHT22;45778;51.142;3.732;2022-12-29T14:58:49;8.80;99.90
59923;DHT22;45778;51.142;3.732;2022-12-29T15:01:42;8.80;99.90
59923;DHT22;45778;51.142;3.732;2022-12-29T15:04:18;8.80;99.90
59923;DHT22;45778;51.142;3.732;2022-12-29T15:06:46;8.80;99.90
59923;DHT22;45778;51.142;3.732;2022-12-29T15:09:35;8.80;99.90
59923;DHT22;45778;51.142;3.732;2022-12-29T15:14:54;8.90;99.90
59923;DHT22;45778;51.142;3.732;2022-12-29T15:17:34;8.90;99.90
59923;DHT22;45778;51.142;3.732;2022-12-29T15:20:14;8.90;99.90
59923;DHT22;45778;51.142;3.732;2022-12-29T15:22:44;8.80;99.90
59923;DHT22;45778;51.142;3.732;2022-12-29T15:25:15;8.90;99.90
59923;DHT22;45778;51.142;3.732;2022-12-29T15:27:52;8.80;99.90
59923;DHT22;45778;51.142;3.732;2022-12-29T15:30:18;8.80;99.90
59923;DHT22;45778;51.142;3.732;2022-12-29T15:32:46;8.80;99.90
59923;DHT22;45778;51.142;3.732;2022-12-29T15:35:31;8.80;99.90
59923;DHT22;45778;51.142;3.732;2022-12-29T15:37:58;8.80;99.90
59923;DHT22;45778;51.142;3.732;2022-12-29T15:40:28;8.70;99.90
59923;DHT22;45778;51.142;3.732;2022-12-29T15:45:42;8.60;99.90
59923;DHT22;45778;51.142;3.732;2022-12-29T15:48:20;8.60;99.90
59923;DHT22;45778;51.142;3.732;2022-12-29T15:50:47;8.60;99.90
59923;DHT22;45778;51.142;3.732;2022-12-29T15:53:23;8.50;99.90
59923;DHT22;45778;51.142;3.732;2022-12-29T15:55:50;8.50;99.90
59923;DHT22;45778;51.142;3.732;2022-12-29T15:58:22;8.50;99.90
59923;DHT22;45778;51.142;3.732;2022-12-29T16:00:52;8.50;99.90
59923;DHT22;45778;51.142;3.732;2022-12-29T16:03:18;8.40;99.90
59923;DHT22;45778;51.142;3.732;2022-12-29T16:05:57;8.40;99.90
59923;DHT22;45778;51.142;3.732;2022-12-29T16:08:34;8.40;99.90
59923;DHT22;45778;51.142;3.732;2022-12-29T16:11:06;8.30;99.90
59923;DHT22;45778;51.142;3.732;2022-12-29T16:13:37;8.20;99.90
59923;DHT22;45778;51.142;3.732;2022-12-29T16:16:29;8.20;99.90
59923;DHT22;45778;51.142;3.732;2022-12-29T16:18:57;8.20;99.90
59923;DHT22;45778;51.142;3.732;2022-12-29T16:21:26;8.20;99.90
59923;DHT22;45778;51.142;3.732;2022-12-29T16:23:55;8.10;99.90
59923;DHT22;45778;51.142;3.732;2022-12-29T16:26:24;8.10;99.90
59923;DHT22;45778;51.142;3.732;2022-12-29T16:28:56;8.10;99.90
59923;DHT22;45778;51.142;3.732;2022-12-29T16:31:28;8.10;99.90
59923;DHT22;45778;51.142;3.732;2022-12-29T16:33:57;8.10;99.90
59923;DHT22;45778;51.142;3.732;2022-12-29T16:36:25;8.10;99.90
59923;DHT22;45778;51.142;3.732;2022-12-29T16:41:51;7.90;99.90
59923;DHT22;45778;51.142;3.732;2022-12-29T16:44:22;7.80;99.90
59923;DHT22;45778;51.142;3.732;2022-12-29T16:47:16;7.90;99.90
59923;DHT22;45778;51.142;3.732;2022-12-29T16:49:49;7.90;99.90
59923;DHT22;45778;51.142;3.732;2022-12-29T16:52:23;7.90;99.90
59923;DHT22;45778;51.142;3.732;2022-12-29T16:54:54;7.90;99.90
59923;DHT22;45778;51.142;3.732;2022-12-29T16:57:33;7.90;99.90
59923;DHT22;45778;51.142;3.732;2022-12-29T17:00:04;8.00;99.90
59923;DHT22;45778;51.142;3.732;2022-12-29T17:02:32;7.90;99.90
59923;DHT22;45778;51.142;3.732;2022-12-29T17:05:00;8.00;99.90
59923;DHT22;45778;51.142;3.732;2022-12-29T17:07:27;7.90;99.90
59923;DHT22;45778;51.142;3.732;2022-12-29T17:09:54;8.00;99.90
59923;DHT22;45778;51.142;3.732;2022-12-29T17:12:23;8.00;99.90
59923;DHT22;45778;51.142;3.732;2022-12-29T17:14:54;8.00;99.90
59923;DHT22;45778;51.142;3.732;2022-12-29T17:19:59;8.00;99.90
59923;DHT22;45778;51.142;3.732;2022-12-29T17:22:28;8.00;99.90
59923;DHT22;45778;51.142;3.732;2022-12-29T17:24:56;8.00;99.90
59923;DHT22;45778;51.142;3.732;2022-12-29T17:27:32;8.00;99.90
59923;DHT22;45778;51.142;3.732;2022-12-29T17:30:19;8.10;99.90
59923;DHT22;45778;51.142;3.732;2022-12-29T17:35:22;8.00;99.90
59923;DHT22;45778;51.142;3.732;2022-12-29T17:37:48;8.10;99.90
59923;DHT22;45778;51.142;3.732;2022-12-29T17:40:17;8.10;99.90
59923;DHT22;45778;51.142;3.732;2022-12-29T17:42:48;8.10;99.90
59923;DHT22;45778;51.142;3.732;2022-12-29T17:45:22;8.10;99.90
59923;DHT22;45778;51.142;3.732;2022-12-29T17:47:48;8.10;99.90
59923;DHT22;45778;51.142;3.732;2022-12-29T17:50:17;8.10;99.90
59923;DHT22;45778;51.142;3.732;2022-12-29T17:52:52;8.10;99.90
59923;DHT22;45778;51.142;3.732;2022-12-29T17:55:20;8.20;99.90
59923;DHT22;45778;51.142;3.732;2022-12-29T17:57:46;8.10;99.90
59923;DHT22;45778;51.142;3.732;2022-12-29T18:00:24;8.20;99.90
59923;DHT22;45778;51.142;3.732;2022-12-29T18:02:54;8.20;99.90
59923;DHT22;45778;51.142;3.732;2022-12-29T18:05:27;8.20;99.90
59923;DHT22;45778;51.142;3.732;2022-12-29T18:07:53;8.20;99.90
59923;DHT22;45778;51.142;3.732;2022-12-29T18:10:21;8.20;99.90
59923;DHT22;45778;51.142;3.732;2022-12-29T18:12:49;8.10;99.90
59923;DHT22;45778;51.142;3.732;2022-12-29T18:15:23;8.10;99.90
59923;DHT22;45778;51.142;3.732;2022-12-29T18:17:54;8.10;99.90
59923;DHT22;45778;51.142;3.732;2022-12-29T18:20:22;8.10;99.90